createdAt,value
2023-02-13T00:00:20.809Z,28.00
2023-02-13T00:02:47.688Z,29.57
2023-02-13T00:05:14.515Z,32.13
2023-02-13T00:07:41.344Z,31.63
2023-02-13T00:10:09.070Z,28.63
2023-02-13T00:12:36.090Z,30.77
2023-02-13T00:15:03.708Z,33.97
2023-02-13T00:17:30.486Z,30.50
2023-02-13T00:19:57.222Z,29.77
2023-02-13T00:22:24.408Z,30.83
2023-02-13T00:24:51.519Z,30.13
2023-02-13T00:27:18.335Z,31.70
2023-02-13T00:29:45.287Z,30.30
2023-02-13T00:32:12.103Z,32.03
2023-02-13T00:34:38.918Z,32.97
2023-02-13T00:37:05.712Z,30.57
2023-02-13T00:39:32.479Z,29.63
2023-02-13T00:42:02.068Z,32.67
2023-02-13T00:44:28.819Z,29.43
2023-02-13T00:46:55.573Z,30.63
2023-02-13T00:49:22.385Z,33.40
2023-02-13T00:51:49.166Z,28.43
2023-02-13T00:54:15.958Z,32.20
2023-02-13T00:56:42.685Z,28.67
2023-02-13T00:59:09.446Z,27.00
2023-02-13T01:01:36.325Z,35.37
2023-02-13T01:04:03.149Z,31.73
2023-02-13T01:06:30.150Z,28.73
2023-02-13T01:08:56.849Z,27.87
2023-02-13T01:11:23.622Z,31.43
2023-02-13T01:13:50.308Z,35.63
2023-02-13T01:16:17.993Z,29.23
2023-02-13T01:18:44.959Z,33.97
2023-02-13T01:21:18.685Z,29.77
2023-02-13T01:23:46.040Z,31.73
2023-02-13T01:26:24.812Z,39.30
2023-02-13T01:28:55.071Z,31.90
2023-02-13T01:31:22.466Z,34.03
2023-02-13T01:33:49.512Z,32.50
2023-02-13T01:36:16.394Z,32.20
2023-02-13T01:38:43.634Z,29.87
2023-02-13T01:41:11.124Z,29.63
2023-02-13T01:44:04.469Z,33.63
2023-02-13T01:46:42.734Z,32.50
2023-02-13T01:49:12.922Z,31.87
2023-02-13T01:51:40.664Z,32.20
2023-02-13T01:54:21.048Z,31.73
2023-02-13T01:56:55.444Z,31.57
2023-02-13T01:59:34.927Z,30.27
2023-02-13T02:02:02.559Z,30.03
2023-02-13T02:04:35.949Z,33.53
2023-02-13T02:07:11.629Z,29.13
2023-02-13T02:09:41.511Z,36.93
2023-02-13T02:12:38.347Z,28.70
2023-02-13T02:15:07.005Z,31.60
2023-02-13T02:17:33.747Z,31.43
2023-02-13T02:20:26.403Z,32.43
2023-02-13T02:23:11.613Z,37.43
2023-02-13T02:26:07.381Z,33.13
2023-02-13T02:28:58.950Z,30.13
2023-02-13T02:31:53.089Z,31.27
2023-02-13T02:34:46.205Z,32.87
2023-02-13T02:37:43.766Z,35.83
2023-02-13T02:40:28.905Z,30.13
2023-02-13T02:43:28.063Z,30.33
2023-02-13T02:46:13.660Z,36.20
2023-02-13T02:49:15.987Z,35.47
2023-02-13T02:51:57.762Z,35.43
2023-02-13T02:55:04.061Z,35.27
2023-02-13T02:57:54.303Z,31.20
2023-02-13T03:00:42.859Z,32.57
2023-02-13T03:03:39.947Z,36.00
2023-02-13T03:06:36.131Z,31.97
2023-02-13T03:09:25.295Z,28.87
2023-02-13T03:12:13.629Z,31.07
2023-02-13T03:14:41.079Z,38.20
2023-02-13T03:17:31.542Z,34.40
2023-02-13T03:20:19.700Z,31.93
2023-02-13T03:22:55.041Z,34.77
2023-02-13T03:25:34.443Z,31.27
2023-02-13T03:28:41.367Z,30.67
2023-02-13T03:31:35.542Z,32.07
2023-02-13T03:34:08.819Z,33.17
2023-02-13T03:37:15.327Z,36.77
2023-02-13T03:40:07.684Z,36.17
2023-02-13T03:42:43.345Z,34.00
2023-02-13T03:45:32.958Z,32.53
2023-02-13T03:48:09.659Z,31.03
2023-02-13T03:50:42.988Z,31.53
2023-02-13T03:53:14.618Z,31.83
2023-02-13T03:56:04.523Z,33.97
2023-02-13T03:58:53.472Z,35.00
2023-02-13T04:01:25.705Z,36.40
2023-02-13T04:03:59.598Z,31.73
2023-02-13T04:06:32.083Z,36.50
2023-02-13T04:08:58.922Z,35.20
2023-02-13T04:11:34.268Z,30.30
2023-02-13T04:14:07.760Z,34.17
2023-02-13T04:16:51.969Z,31.73
2023-02-13T04:19:19.702Z,32.83
2023-02-13T04:21:54.605Z,32.77
2023-02-13T04:24:21.342Z,29.50
2023-02-13T04:26:48.113Z,34.47
2023-02-13T04:29:14.874Z,34.00
2023-02-13T04:31:41.718Z,33.87
2023-02-13T04:34:08.598Z,28.60
2023-02-13T04:36:35.282Z,31.90
2023-02-13T04:39:02.049Z,30.97
2023-02-13T04:41:28.830Z,31.10
2023-02-13T04:43:55.552Z,29.10
2023-02-13T04:46:22.295Z,29.50
2023-02-13T04:48:49.189Z,29.70
2023-02-13T04:51:15.944Z,33.60
2023-02-13T04:53:42.658Z,30.47
2023-02-13T04:56:09.392Z,33.10
2023-02-13T04:58:36.223Z,32.73
2023-02-13T05:01:03.247Z,31.13
2023-02-13T05:03:30.021Z,30.57
2023-02-13T05:05:56.700Z,35.53
2023-02-13T05:08:23.371Z,29.20
2023-02-13T05:10:50.201Z,32.87
2023-02-13T05:13:16.917Z,32.97
2023-02-13T05:15:43.713Z,33.50
2023-02-13T05:18:10.447Z,32.53
2023-02-13T05:20:37.198Z,30.43
2023-02-13T05:23:22.805Z,31.80
2023-02-13T05:25:50.022Z,29.30
2023-02-13T05:28:40.313Z,31.87
2023-02-13T05:31:07.150Z,33.40
2023-02-13T05:33:33.903Z,32.07
2023-02-13T05:36:00.639Z,30.13
2023-02-13T05:38:27.439Z,30.47
2023-02-13T05:40:54.138Z,33.40
2023-02-13T05:43:20.948Z,29.40
2023-02-13T05:45:48.270Z,31.20
2023-02-13T05:48:15.043Z,32.83
2023-02-13T05:50:41.798Z,30.50
2023-02-13T05:53:08.593Z,35.03
2023-02-13T05:55:35.371Z,33.30
2023-02-13T05:58:02.156Z,34.33
2023-02-13T06:00:29.010Z,32.27
2023-02-13T06:02:55.728Z,30.13
2023-02-13T06:05:22.407Z,30.90
2023-02-13T06:07:49.089Z,33.57
2023-02-13T06:10:15.915Z,30.63
2023-02-13T06:12:43.467Z,33.60
2023-02-13T06:15:10.242Z,28.13
2023-02-13T06:17:37.010Z,30.57
2023-02-13T06:20:03.956Z,29.67
2023-02-13T06:22:30.646Z,33.53
2023-02-13T06:24:57.351Z,30.27
2023-02-13T06:27:24.052Z,33.53
2023-02-13T06:29:50.725Z,28.60
2023-02-13T06:32:17.476Z,28.90
2023-02-13T06:34:44.425Z,31.57
2023-02-13T06:37:11.212Z,31.77
2023-02-13T06:39:38.016Z,32.63
2023-02-13T06:42:04.730Z,36.23
2023-02-13T06:44:31.460Z,32.80
2023-02-13T06:46:58.275Z,32.37
2023-02-13T06:49:25.055Z,26.43
2023-02-13T06:51:52.007Z,34.33
2023-02-13T06:54:18.755Z,32.47
2023-02-13T06:56:45.467Z,29.33
2023-02-13T06:59:12.182Z,33.53
2023-02-13T07:01:39.176Z,32.67
2023-02-13T07:04:05.909Z,29.00
2023-02-13T07:06:33.570Z,29.63
2023-02-13T07:09:02.002Z,27.80
2023-02-13T07:11:28.805Z,31.43
2023-02-13T07:13:55.541Z,29.80
2023-02-13T07:16:22.484Z,26.90
2023-02-13T07:18:49.655Z,28.60
2023-02-13T07:21:16.386Z,32.00
2023-02-13T07:23:43.183Z,30.90
2023-02-13T07:26:11.204Z,30.57
2023-02-13T07:28:38.001Z,30.73
2023-02-13T07:31:06.169Z,29.30
2023-02-13T07:33:36.576Z,27.60
2023-02-13T07:36:04.055Z,30.67
2023-02-13T07:38:31.996Z,31.67
2023-02-13T07:41:03.555Z,33.70
2023-02-13T07:43:30.921Z,29.33
2023-02-13T07:46:02.130Z,31.03
2023-02-13T07:48:29.381Z,28.90
2023-02-13T07:51:01.478Z,32.10
2023-02-13T07:53:28.927Z,27.37
2023-02-13T07:55:56.067Z,31.10
2023-02-13T07:58:23.037Z,28.00
2023-02-13T08:00:49.913Z,30.53
2023-02-13T08:03:16.638Z,32.43
2023-02-13T08:05:43.487Z,31.03
2023-02-13T08:08:10.322Z,28.17
2023-02-13T08:10:55.739Z,28.67
2023-02-13T08:13:22.530Z,30.30
2023-02-13T08:15:49.294Z,29.67
2023-02-13T08:18:17.545Z,31.53
2023-02-13T08:20:45.612Z,26.73
2023-02-13T08:23:12.720Z,30.67
2023-02-13T08:25:39.898Z,31.67
2023-02-13T08:28:06.890Z,28.30
2023-02-13T08:30:33.759Z,28.20
2023-02-13T08:33:00.575Z,27.43
2023-02-13T08:35:29.920Z,28.40
2023-02-13T08:37:57.073Z,29.43
2023-02-13T08:40:25.456Z,27.77
2023-02-13T08:42:52.993Z,25.00
2023-02-13T08:45:19.848Z,27.63
2023-02-13T08:47:46.846Z,25.87
2023-02-13T08:50:13.531Z,27.43
2023-02-13T08:52:40.297Z,29.47
2023-02-13T08:55:07.167Z,26.50
2023-02-13T08:57:33.929Z,25.50
2023-02-13T09:00:00.700Z,26.83
2023-02-13T09:02:27.501Z,25.63
2023-02-13T09:04:54.323Z,25.17
2023-02-13T09:07:21.042Z,21.07
2023-02-13T09:09:47.737Z,22.13
2023-02-13T09:12:14.587Z,20.20
2023-02-13T09:14:41.374Z,20.73
2023-02-13T09:17:08.423Z,22.27
2023-02-13T09:19:35.120Z,24.27
2023-02-13T09:22:02.110Z,23.70
2023-02-13T09:24:28.913Z,23.97
2023-02-13T09:26:56.701Z,25.40
2023-02-13T09:29:24.007Z,24.67
2023-02-13T09:31:51.076Z,24.07
2023-02-13T09:34:17.912Z,25.47
2023-02-13T09:36:44.603Z,23.50
2023-02-13T09:39:11.381Z,23.63
2023-02-13T09:41:41.061Z,26.40
2023-02-13T09:44:37.547Z,24.53
2023-02-13T09:47:07.355Z,24.47
2023-02-13T09:49:38.921Z,25.10
2023-02-13T09:52:05.747Z,22.73
2023-02-13T09:54:32.555Z,24.57
2023-02-13T09:57:05.393Z,23.67
2023-02-13T10:00:17.487Z,22.10
2023-02-13T10:02:59.324Z,25.67
2023-02-13T10:05:47.878Z,21.07
2023-02-13T10:08:23.617Z,23.57
2023-02-13T10:10:50.581Z,22.30
2023-02-13T10:13:55.004Z,21.07
2023-02-13T10:16:35.290Z,21.40
2023-02-13T10:19:18.670Z,18.67
2023-02-13T10:21:58.934Z,22.27
2023-02-13T10:24:58.390Z,22.70
2023-02-13T10:27:49.704Z,20.57
2023-02-13T10:30:34.500Z,23.70
2023-02-13T10:33:19.394Z,21.90
2023-02-13T10:35:57.971Z,20.43
2023-02-13T10:38:25.427Z,19.93
2023-02-13T10:41:06.437Z,19.43
2023-02-13T10:43:43.393Z,17.03
2023-02-13T10:46:19.226Z,17.77
2023-02-13T10:49:00.176Z,18.80
2023-02-13T10:51:37.729Z,18.93
2023-02-13T10:54:24.904Z,19.50
2023-02-13T10:57:11.642Z,19.30
2023-02-13T10:59:51.526Z,18.47
2023-02-13T11:02:27.465Z,18.23
2023-02-13T11:05:07.555Z,18.40
2023-02-13T11:07:35.300Z,18.07
2023-02-13T11:10:13.753Z,17.60
2023-02-13T11:12:40.483Z,21.07
2023-02-13T11:15:22.181Z,19.23
2023-02-13T11:17:50.722Z,18.67
2023-02-13T11:20:48.861Z,16.53
2023-02-13T11:23:24.452Z,17.40
2023-02-13T11:26:03.610Z,16.47
2023-02-13T11:28:34.200Z,18.27
2023-02-13T11:31:29.997Z,18.63
2023-02-13T11:33:59.310Z,19.70
2023-02-13T11:36:33.713Z,16.43
2023-02-13T11:39:01.853Z,15.10
2023-02-13T11:41:29.898Z,14.17
2023-02-13T11:44:01.645Z,16.77
2023-02-13T11:46:45.386Z,18.63
2023-02-13T11:49:47.838Z,14.77
2023-02-13T11:52:29.317Z,13.23
2023-02-13T11:55:04.990Z,15.47
2023-02-13T11:57:35.300Z,12.80
2023-02-13T12:00:29.844Z,12.33
2023-02-13T12:02:57.101Z,17.33
2023-02-13T12:05:28.651Z,15.10
2023-02-13T12:08:01.972Z,13.53
2023-02-13T12:10:31.389Z,12.90
2023-02-13T12:13:27.484Z,12.13
2023-02-13T12:16:02.510Z,13.57
2023-02-13T12:18:44.845Z,13.57
2023-02-13T12:21:38.454Z,16.90
2023-02-13T12:24:46.397Z,12.40
2023-02-13T12:27:25.737Z,11.03
2023-02-13T12:30:16.553Z,13.27
2023-02-13T12:33:01.306Z,15.27
2023-02-13T12:35:56.748Z,13.10
2023-02-13T12:38:33.644Z,14.30
2023-02-13T12:41:15.798Z,14.13
2023-02-13T12:43:59.559Z,16.37
2023-02-13T12:46:42.682Z,14.50
2023-02-13T12:49:36.077Z,13.60
2023-02-13T12:52:29.083Z,15.03
2023-02-13T12:55:20.233Z,12.83
2023-02-13T12:58:07.448Z,13.47
2023-02-13T13:00:51.703Z,11.40
2023-02-13T13:03:47.875Z,12.23
2023-02-13T13:06:45.782Z,14.47
2023-02-13T13:09:29.406Z,14.63
2023-02-13T13:12:08.143Z,12.80
2023-02-13T13:14:43.928Z,10.97
2023-02-13T13:17:28.642Z,11.47
2023-02-13T13:20:23.121Z,13.07
2023-02-13T13:23:13.153Z,12.63
2023-02-13T13:25:59.623Z,13.00
2023-02-13T13:28:33.252Z,14.23
2023-02-13T13:31:01.061Z,14.97
2023-02-13T13:33:30.841Z,12.30
2023-02-13T13:36:08.981Z,14.70
2023-02-13T13:39:06.178Z,14.17
2023-02-13T13:41:38.733Z,15.00
2023-02-13T13:44:17.530Z,15.30
2023-02-13T13:46:59.221Z,14.30
2023-02-13T13:49:41.469Z,15.93
2023-02-13T13:52:29.818Z,14.13
2023-02-13T13:55:00.512Z,14.43
2023-02-13T13:57:33.346Z,14.57
2023-02-13T14:00:27.114Z,14.60
2023-02-13T14:02:59.828Z,13.20
2023-02-13T14:05:30.595Z,17.60
2023-02-13T14:08:04.183Z,14.10
2023-02-13T14:10:30.883Z,16.20
2023-02-13T14:12:57.609Z,14.70
2023-02-13T14:15:39.552Z,14.10
2023-02-13T14:18:15.298Z,12.03
2023-02-13T14:20:51.535Z,14.87
2023-02-13T14:23:42.675Z,14.07
2023-02-13T14:26:15.516Z,14.47
2023-02-13T14:29:08.521Z,14.17
2023-02-13T14:31:44.030Z,12.63
2023-02-13T14:34:17.773Z,13.07
2023-02-13T14:36:48.790Z,12.27
2023-02-13T14:39:32.061Z,12.87
2023-02-13T14:42:01.333Z,12.53
2023-02-13T14:44:33.000Z,12.43
2023-02-13T14:47:13.410Z,13.17
2023-02-13T14:49:42.728Z,12.90
2023-02-13T14:52:19.271Z,12.20
2023-02-13T14:54:50.442Z,13.27
2023-02-13T14:57:23.926Z,14.27
2023-02-13T14:59:56.140Z,11.90
2023-02-13T15:02:28.527Z,12.47
2023-02-13T15:05:08.115Z,11.43
2023-02-13T15:07:45.335Z,10.47
2023-02-13T15:10:34.547Z,13.97
2023-02-13T15:13:02.419Z,12.20
2023-02-13T15:15:35.216Z,11.60
2023-02-13T15:18:08.849Z,14.43
2023-02-13T15:20:38.639Z,12.93
2023-02-13T15:23:09.596Z,13.40
2023-02-13T15:25:39.386Z,12.03
2023-02-13T15:28:08.339Z,13.70
2023-02-13T15:30:37.293Z,11.93
2023-02-13T15:33:14.748Z,13.33
2023-02-13T15:35:41.495Z,14.67
2023-02-13T15:38:34.836Z,13.23
2023-02-13T15:41:05.534Z,13.43
2023-02-13T15:43:34.183Z,12.40
2023-02-13T15:46:07.383Z,12.13
2023-02-13T15:48:35.719Z,13.70
2023-02-13T15:51:03.524Z,14.17
2023-02-13T15:53:30.518Z,12.77
2023-02-13T15:56:04.149Z,15.03
2023-02-13T15:58:34.128Z,15.93
2023-02-13T16:01:05.629Z,16.40
2023-02-13T16:03:34.590Z,14.37
2023-02-13T16:06:02.522Z,13.40
2023-02-13T16:08:36.107Z,14.10
2023-02-13T16:11:28.885Z,14.70
2023-02-13T16:13:55.563Z,15.57
2023-02-13T16:16:24.089Z,16.40
2023-02-13T16:18:52.225Z,14.00
2023-02-13T16:21:29.237Z,19.37
2023-02-13T16:24:02.239Z,15.50
2023-02-13T16:26:29.394Z,13.87
2023-02-13T16:28:56.352Z,17.57
2023-02-13T16:31:23.643Z,17.27
2023-02-13T16:33:50.695Z,15.77
2023-02-13T16:36:26.021Z,16.93
2023-02-13T16:38:52.828Z,18.10
2023-02-13T16:41:19.546Z,17.97
2023-02-13T16:43:49.265Z,16.67
2023-02-13T16:46:19.217Z,17.30
2023-02-13T16:48:57.101Z,21.63
2023-02-13T16:51:49.584Z,19.83
2023-02-13T16:54:21.238Z,19.03
2023-02-13T16:56:57.412Z,20.13
2023-02-13T16:59:35.828Z,17.30
2023-02-13T17:02:23.676Z,18.70
2023-02-13T17:04:57.592Z,17.70
2023-02-13T17:07:27.576Z,19.67
2023-02-13T17:09:58.728Z,20.13
2023-02-13T17:12:28.807Z,19.13
2023-02-13T17:14:57.721Z,20.60
2023-02-13T17:17:26.233Z,19.70
2023-02-13T17:19:53.020Z,19.03
2023-02-13T17:22:22.785Z,19.93
2023-02-13T17:24:49.655Z,18.63
2023-02-13T17:27:16.423Z,18.70
2023-02-13T17:29:43.279Z,19.40
2023-02-13T17:32:16.981Z,19.93
2023-02-13T17:34:46.503Z,17.80
2023-02-13T17:37:25.115Z,19.97
2023-02-13T17:39:52.946Z,20.83
2023-02-13T17:42:23.423Z,21.00
2023-02-13T17:44:50.528Z,22.10
2023-02-13T17:47:18.037Z,20.80
2023-02-13T17:49:45.161Z,20.57
2023-02-13T17:52:21.548Z,22.20
2023-02-13T17:54:48.951Z,20.67
2023-02-13T17:57:17.616Z,19.97
2023-02-13T17:59:45.183Z,21.20
2023-02-13T18:02:29.919Z,22.07
2023-02-13T18:04:56.665Z,19.37
2023-02-13T18:07:23.504Z,21.53
2023-02-13T18:09:50.337Z,23.50
2023-02-13T18:12:22.988Z,21.77
2023-02-13T18:14:51.212Z,22.63
2023-02-13T18:17:19.126Z,25.17
2023-02-13T18:19:46.403Z,27.03
2023-02-13T18:22:13.687Z,25.23
2023-02-13T18:24:42.094Z,24.43
2023-02-13T18:27:11.283Z,22.10
2023-02-13T18:29:38.601Z,23.40
2023-02-13T18:32:10.218Z,23.33
2023-02-13T18:34:38.786Z,23.60
2023-02-13T18:37:07.375Z,24.90
2023-02-13T18:39:34.881Z,22.90
2023-02-13T18:42:01.821Z,24.63
2023-02-13T18:44:29.080Z,24.37
2023-02-13T18:46:56.237Z,24.47
2023-02-13T18:49:23.058Z,29.37
2023-02-13T18:51:50.124Z,26.33
2023-02-13T18:54:18.071Z,26.03
2023-02-13T18:56:45.597Z,25.57
2023-02-13T18:59:12.462Z,25.37
2023-02-13T19:01:39.694Z,24.87
2023-02-13T19:04:07.090Z,25.23
2023-02-13T19:06:33.931Z,27.47
2023-02-13T19:09:00.879Z,25.47
2023-02-13T19:11:27.761Z,23.23
2023-02-13T19:14:00.474Z,26.87
2023-02-13T19:16:29.695Z,25.33
2023-02-13T19:18:58.992Z,23.70
2023-02-13T19:21:27.729Z,25.73
2023-02-13T19:23:55.049Z,23.53
2023-02-13T19:26:24.492Z,24.97
2023-02-13T19:28:51.414Z,25.43
2023-02-13T19:31:21.617Z,25.30
2023-02-13T19:33:49.669Z,24.67
2023-02-13T19:36:21.513Z,26.07
2023-02-13T19:38:53.106Z,24.40
2023-02-13T19:41:19.964Z,27.63
2023-02-13T19:43:50.915Z,27.30
2023-02-13T19:46:19.960Z,28.13
2023-02-13T19:48:46.816Z,28.53
2023-02-13T19:51:15.388Z,27.87
2023-02-13T19:53:42.386Z,29.00
2023-02-13T19:56:10.586Z,24.47
2023-02-13T19:58:38.616Z,27.20
2023-02-13T20:01:17.445Z,28.07
2023-02-13T20:03:44.303Z,28.70
2023-02-13T20:06:18.825Z,30.23
2023-02-13T20:08:46.305Z,26.90
2023-02-13T20:11:14.792Z,27.03
2023-02-13T20:13:41.957Z,26.93
2023-02-13T20:16:12.122Z,25.10
2023-02-13T20:18:39.797Z,27.03
2023-02-13T20:21:12.857Z,27.87
2023-02-13T20:23:40.228Z,22.93
2023-02-13T20:26:16.741Z,25.83
2023-02-13T20:28:46.658Z,32.70
2023-02-13T20:31:15.095Z,30.27
2023-02-13T20:33:42.306Z,26.10
2023-02-13T20:36:17.729Z,29.40
2023-02-13T20:38:44.984Z,28.80
2023-02-13T20:41:17.128Z,28.70
2023-02-13T20:43:44.375Z,25.93
2023-02-13T20:46:12.523Z,29.83
2023-02-13T20:48:40.638Z,28.13
2023-02-13T20:51:11.452Z,28.50
2023-02-13T20:53:38.660Z,32.20
2023-02-13T20:56:25.328Z,28.07
2023-02-13T20:58:54.893Z,28.97
2023-02-13T21:01:24.805Z,33.47
2023-02-13T21:03:56.104Z,27.53
2023-02-13T21:06:28.939Z,26.27
2023-02-13T21:08:56.083Z,27.80
2023-02-13T21:11:24.256Z,28.70
2023-02-13T21:13:51.615Z,29.67
2023-02-13T21:16:21.399Z,25.97
2023-02-13T21:18:50.438Z,27.00
2023-02-13T21:21:17.918Z,26.60
2023-02-13T21:23:44.845Z,28.43
2023-02-13T21:26:18.939Z,28.03
2023-02-13T21:28:47.743Z,28.10
2023-02-13T21:31:29.216Z,27.40
2023-02-13T21:34:05.106Z,23.20
2023-02-13T21:36:33.557Z,22.33
2023-02-13T21:39:00.763Z,25.33
2023-02-13T21:41:27.847Z,22.17
2023-02-13T21:43:54.852Z,22.73
2023-02-13T21:46:32.226Z,22.43
2023-02-13T21:49:05.066Z,25.57
2023-02-13T21:51:33.395Z,21.67
2023-02-13T21:54:01.174Z,24.00
2023-02-13T21:56:30.230Z,25.00
2023-02-13T21:58:57.978Z,28.47
2023-02-13T22:01:28.177Z,22.53
2023-02-13T22:03:59.869Z,31.77
2023-02-13T22:06:28.690Z,30.93
2023-02-13T22:09:08.092Z,29.43
2023-02-13T22:11:36.055Z,30.43
2023-02-13T22:14:05.351Z,27.17
2023-02-13T22:16:34.883Z,24.90
2023-02-13T22:19:01.991Z,28.20
2023-02-13T22:21:30.554Z,25.67
2023-02-13T22:23:57.743Z,26.40
2023-02-13T22:26:32.476Z,27.20
2023-02-13T22:29:08.701Z,26.17
2023-02-13T22:31:36.275Z,24.80
2023-02-13T22:34:05.239Z,23.83
2023-02-13T22:36:34.825Z,23.03
2023-02-13T22:39:01.894Z,25.57
2023-02-13T22:41:28.928Z,23.63
2023-02-13T22:43:56.771Z,26.57
2023-02-13T22:46:29.624Z,23.07
2023-02-13T22:48:57.765Z,26.07
2023-02-13T22:51:30.347Z,19.27
2023-02-13T22:53:57.907Z,19.33
2023-02-13T22:56:26.990Z,18.77
2023-02-13T22:58:53.935Z,14.10
2023-02-13T23:01:22.928Z,15.07
2023-02-13T23:03:49.844Z,17.57
2023-02-13T23:06:17.428Z,13.60
2023-02-13T23:08:44.791Z,11.07
2023-02-13T23:11:33.772Z,13.87
2023-02-13T23:14:01.019Z,14.70
2023-02-13T23:16:27.919Z,14.63
2023-02-13T23:18:56.627Z,17.93
2023-02-13T23:21:24.796Z,19.10
2023-02-13T23:23:51.742Z,19.63
2023-02-13T23:26:18.934Z,21.30
2023-02-13T23:28:45.757Z,18.53
2023-02-13T23:31:12.767Z,20.23
2023-02-13T23:33:39.652Z,17.70
2023-02-13T23:36:06.983Z,14.47
2023-02-13T23:38:33.870Z,20.87
2023-02-13T23:41:08.548Z,23.60
2023-02-13T23:43:35.354Z,16.27
2023-02-13T23:46:06.904Z,15.90
2023-02-13T23:48:34.656Z,17.73
2023-02-13T23:51:01.954Z,22.20
2023-02-13T23:53:28.871Z,22.60
2023-02-13T23:55:55.746Z,18.67
2023-02-13T23:58:22.778Z,18.07
